createdAt,value
2018-10-05T00:01:12.067Z,23.38
2018-10-05T00:03:42.389Z,23.38
2018-10-05T00:06:12.718Z,23.38
2018-10-05T00:08:43.037Z,23.38
2018-10-05T00:11:13.264Z,23.37
2018-10-05T00:13:43.286Z,23.36
2018-10-05T00:16:13.503Z,23.38
2018-10-05T00:18:43.831Z,23.36
2018-10-05T00:21:14.258Z,23.35
2018-10-05T00:23:44.787Z,23.34
2018-10-05T00:26:15.114Z,23.35
2018-10-05T00:28:45.426Z,23.34
2018-10-05T00:31:15.966Z,23.34
2018-10-05T00:33:46.296Z,23.33
2018-10-05T00:36:16.520Z,23.33
2018-10-05T00:38:47.049Z,23.32
2018-10-05T00:41:17.461Z,23.32
2018-10-05T00:43:47.591Z,23.33
2018-10-05T00:46:18.226Z,23.32
2018-10-05T00:48:48.546Z,23.31
2018-10-05T00:51:19.083Z,23.31
2018-10-05T00:53:49.712Z,23.31
2018-10-05T00:56:19.739Z,23.32
2018-10-05T00:58:50.471Z,23.32
2018-10-05T01:01:20.694Z,23.32
2018-10-05T01:03:51.229Z,23.30
2018-10-05T01:06:22.265Z,23.31
2018-10-05T01:08:53.103Z,23.32
2018-10-05T01:11:23.947Z,23.31
2018-10-05T01:13:54.873Z,23.32
2018-10-05T01:16:25.313Z,23.32
2018-10-05T01:18:55.635Z,23.32
2018-10-05T01:21:28.109Z,23.33
2018-10-05T01:23:58.434Z,23.32
2018-10-05T01:26:29.269Z,23.32
2018-10-05T01:28:59.701Z,23.33
2018-10-05T01:31:30.332Z,23.33
2018-10-05T01:34:00.349Z,23.31
2018-10-05T01:36:30.688Z,23.33
2018-10-05T01:39:01.317Z,23.32
2018-10-05T01:41:31.739Z,23.32
2018-10-05T01:44:02.060Z,23.32
2018-10-05T01:46:32.587Z,23.32
2018-10-05T01:49:02.908Z,23.32
2018-10-05T01:51:38.966Z,23.32
2018-10-05T01:54:09.502Z,23.31
2018-10-05T01:56:40.036Z,23.31
2018-10-05T01:59:10.462Z,23.32
2018-10-05T02:01:40.579Z,23.32
2018-10-05T02:04:11.112Z,23.32
2018-10-05T02:06:41.132Z,23.31
2018-10-05T02:09:11.355Z,23.32
2018-10-05T02:11:41.991Z,23.31
2018-10-05T02:14:12.514Z,23.30
2018-10-05T02:16:43.467Z,23.31
2018-10-05T02:19:13.892Z,23.30
2018-10-05T02:21:44.208Z,23.30
2018-10-05T02:24:14.236Z,23.30
2018-10-05T02:26:44.453Z,23.29
2018-10-05T02:29:14.875Z,23.29
2018-10-05T02:31:44.893Z,23.28
2018-10-05T02:34:15.325Z,23.29
2018-10-05T02:36:45.650Z,23.28
2018-10-05T02:39:15.766Z,23.28
2018-10-05T02:41:46.238Z,23.28
2018-10-05T02:44:16.622Z,23.27
2018-10-05T02:46:46.956Z,23.28
2018-10-05T02:49:17.273Z,23.27
2018-10-05T02:51:47.605Z,23.26
2018-10-05T02:54:17.825Z,23.26
2018-10-05T02:56:48.346Z,23.27
2018-10-05T02:59:18.781Z,23.26
2018-10-05T03:02:52.696Z,23.26
2018-10-05T03:05:23.326Z,23.25
2018-10-05T03:07:55.605Z,23.24
2018-10-05T03:10:26.027Z,23.23
2018-10-05T03:12:56.463Z,23.23
2018-10-05T03:15:26.989Z,23.23
2018-10-05T03:17:57.822Z,23.23
2018-10-05T03:20:28.444Z,23.23
2018-10-05T03:23:00.320Z,23.22
2018-10-05T03:25:30.650Z,23.23
2018-10-05T03:28:01.176Z,23.23
2018-10-05T03:30:31.627Z,23.24
2018-10-05T03:33:02.343Z,23.24
2018-10-05T03:35:33.070Z,23.24
2018-10-05T03:38:03.503Z,23.25
2018-10-05T03:40:33.612Z,23.25
2018-10-05T03:43:03.954Z,23.24
2018-10-05T03:45:34.171Z,23.24
2018-10-05T03:48:04.624Z,23.26
2018-10-05T03:50:34.724Z,23.24
2018-10-05T03:53:05.648Z,23.25
2018-10-05T03:55:35.778Z,23.25
2018-10-05T03:58:06.006Z,23.25
2018-10-05T04:00:36.433Z,23.25
2018-10-05T04:03:07.066Z,23.25
2018-10-05T04:05:37.491Z,23.24
2018-10-05T04:08:09.049Z,23.25
2018-10-05T04:10:39.370Z,23.26
2018-10-05T04:13:10.316Z,23.25
2018-10-05T04:15:42.066Z,23.25
2018-10-05T04:18:12.602Z,23.25
2018-10-05T04:34:06.776Z,23.18
2018-10-05T04:36:38.123Z,23.20
2018-10-05T04:39:09.975Z,23.21
2018-10-05T04:41:41.943Z,23.21
2018-10-05T04:44:12.893Z,23.21
2018-10-05T04:46:43.524Z,23.21
2018-10-05T04:49:14.048Z,23.21
2018-10-05T04:51:45.397Z,23.21
2018-10-05T04:54:16.449Z,23.22
2018-10-05T04:56:46.782Z,23.21
2018-10-05T04:59:17.301Z,23.22
2018-10-05T05:01:47.622Z,23.21
2018-10-05T05:04:17.852Z,23.22
2018-10-05T05:06:48.280Z,23.21
2018-10-05T05:09:18.912Z,23.21
2018-10-05T05:11:49.640Z,23.21
2018-10-05T05:14:20.682Z,23.21
2018-10-05T05:16:51.216Z,23.22
2018-10-05T05:19:22.569Z,23.23
2018-10-05T05:21:52.993Z,23.25
2018-10-05T05:24:23.932Z,23.24
2018-10-05T05:26:55.243Z,23.25
2018-10-05T05:29:25.914Z,23.25
2018-10-05T05:31:56.235Z,23.27
2018-10-05T05:34:26.767Z,23.27
2018-10-05T05:36:57.398Z,23.10
2018-10-05T05:39:27.830Z,23.28
2018-10-05T05:41:58.259Z,23.29
2018-10-05T05:44:28.371Z,23.29
2018-10-05T05:46:58.874Z,23.31
2018-10-05T05:49:29.545Z,23.31
2018-10-05T05:52:00.788Z,23.31
2018-10-05T05:54:31.449Z,23.32
2018-10-05T05:57:02.160Z,23.33
2018-10-05T05:59:32.996Z,23.34
2018-10-05T06:02:03.525Z,23.35
2018-10-05T06:04:34.055Z,23.35
2018-10-05T06:07:04.581Z,23.35
2018-10-05T06:09:35.218Z,23.35
2018-10-05T06:12:06.501Z,23.35
2018-10-05T06:14:36.996Z,23.36
2018-10-05T06:17:07.829Z,23.35
2018-10-05T06:19:38.556Z,23.35
2018-10-05T06:22:09.605Z,23.35
2018-10-05T06:24:40.448Z,23.35
2018-10-05T06:27:11.195Z,23.35
2018-10-05T06:29:41.304Z,23.35
2018-10-05T06:32:11.937Z,23.34
2018-10-05T06:34:42.467Z,23.34
2018-10-05T06:37:13.102Z,23.35
2018-10-05T06:39:43.640Z,23.33
2018-10-05T06:42:14.204Z,23.35
2018-10-05T06:44:44.585Z,23.33
2018-10-05T06:47:15.319Z,23.34
2018-10-05T06:49:45.645Z,23.32
2018-10-05T06:52:16.073Z,23.32
2018-10-05T06:54:46.500Z,23.32
2018-10-05T06:57:17.236Z,23.30
2018-10-05T06:59:47.354Z,23.30
2018-10-05T07:02:17.771Z,23.30
2018-10-05T07:04:48.520Z,23.30
2018-10-05T07:07:19.854Z,23.30
2018-10-05T07:09:51.321Z,23.30
2018-10-05T07:12:22.987Z,23.29
2018-10-05T07:14:53.818Z,23.29
2018-10-05T07:17:24.445Z,23.29
2018-10-05T07:19:55.485Z,23.28
2018-10-05T07:22:26.558Z,23.28
2018-10-05T07:24:57.466Z,23.28
2018-10-05T07:27:27.797Z,23.27
2018-10-05T07:29:58.226Z,23.27
2018-10-05T07:32:28.543Z,23.27
2018-10-05T07:34:59.383Z,23.27
2018-10-05T07:37:30.077Z,23.26
2018-10-05T07:40:00.754Z,23.26
2018-10-05T07:42:31.484Z,23.25
2018-10-05T07:45:02.015Z,23.25
2018-10-05T07:47:32.651Z,23.25
2018-10-05T07:50:02.975Z,23.25
2018-10-05T07:52:33.707Z,23.24
2018-10-05T07:55:04.856Z,23.25
2018-10-05T07:57:35.642Z,23.24
2018-10-05T08:00:06.839Z,23.24
2018-10-05T08:02:37.370Z,23.24
2018-10-05T08:05:07.697Z,23.24
2018-10-05T08:07:38.634Z,23.25
2018-10-05T08:10:09.676Z,23.24
2018-10-05T08:12:40.305Z,23.25
2018-10-05T08:15:11.044Z,23.25
2018-10-05T08:17:41.370Z,23.26
2018-10-05T08:20:12.207Z,23.25
2018-10-05T08:22:42.637Z,23.26
2018-10-05T08:25:13.882Z,23.26
2018-10-05T08:27:44.401Z,23.26
2018-10-05T08:30:14.938Z,23.26
2018-10-05T08:32:45.351Z,23.26
2018-10-05T08:35:15.894Z,23.26
2018-10-05T08:37:46.841Z,23.27
2018-10-05T08:40:17.507Z,23.26
2018-10-05T08:42:48.414Z,23.27
2018-10-05T08:45:18.751Z,23.27
2018-10-05T08:47:48.960Z,23.27
2018-10-05T08:50:19.483Z,23.27
2018-10-05T08:52:49.721Z,23.28
2018-10-05T08:55:20.344Z,23.28
2018-10-05T08:57:50.498Z,23.27
2018-10-05T09:00:21.110Z,23.27
2018-10-05T09:02:51.831Z,23.28
2018-10-05T09:05:22.158Z,23.28
2018-10-05T09:07:52.890Z,23.28
2018-10-05T09:10:23.616Z,23.28
2018-10-05T09:12:54.158Z,23.27
2018-10-05T09:15:24.389Z,23.27
2018-10-05T09:17:55.058Z,23.28
2018-10-05T09:20:25.854Z,23.27
2018-10-05T09:22:56.706Z,23.27
2018-10-05T09:25:27.020Z,23.27
2018-10-05T09:27:57.956Z,23.26
2018-10-05T09:30:29.238Z,23.26
2018-10-05T09:33:00.859Z,23.26
2018-10-05T09:35:33.689Z,23.25
2018-10-05T09:38:15.436Z,23.25
2018-10-05T09:40:47.295Z,23.25
2018-10-05T09:43:17.929Z,23.25
2018-10-05T09:45:49.283Z,23.25
2018-10-05T09:48:20.117Z,23.24
2018-10-05T09:50:50.744Z,23.24
2018-10-05T09:53:21.067Z,23.24
2018-10-05T09:55:51.402Z,23.23
2018-10-05T09:58:21.864Z,23.25
2018-10-05T10:00:57.471Z,23.24
2018-10-05T10:03:33.531Z,23.23
2018-10-05T10:06:04.168Z,23.25
2018-10-05T10:08:34.396Z,23.23
2018-10-05T10:11:05.333Z,23.24
2018-10-05T10:13:35.864Z,23.24
2018-10-05T10:16:06.800Z,23.24
2018-10-05T10:18:37.344Z,23.23
2018-10-05T10:21:07.863Z,23.22
2018-10-05T10:23:38.391Z,23.23
2018-10-05T10:26:08.824Z,23.22
2018-10-05T10:28:39.654Z,23.22
2018-10-05T10:31:10.183Z,23.22
2018-10-05T10:33:40.657Z,23.22
2018-10-05T10:36:11.041Z,23.22
2018-10-05T10:38:41.262Z,23.22
2018-10-05T10:41:11.702Z,23.21
2018-10-05T10:43:42.326Z,23.21
2018-10-05T10:46:12.757Z,23.22
2018-10-05T10:48:43.280Z,23.21
2018-10-05T10:51:14.324Z,23.21
2018-10-05T10:53:44.957Z,23.22
2018-10-05T10:56:15.855Z,23.23
2018-10-05T10:58:46.635Z,23.22
2018-10-05T11:01:17.061Z,23.22
2018-10-05T11:03:47.273Z,23.23
2018-10-05T11:06:18.119Z,23.22
2018-10-05T11:08:48.853Z,23.23
2018-10-05T11:11:19.689Z,23.23
2018-10-05T11:13:52.482Z,23.22
2018-10-05T11:16:23.338Z,23.25
2018-10-05T11:18:54.156Z,23.23
2018-10-05T11:21:24.476Z,23.23
2018-10-05T11:23:55.479Z,23.24
2018-10-05T11:26:26.561Z,23.22
2018-10-05T11:28:57.368Z,23.22
2018-10-05T11:31:28.138Z,23.22
2018-10-05T11:33:58.769Z,23.23
2018-10-05T11:36:29.490Z,23.23
2018-10-05T11:38:59.722Z,23.23
2018-10-05T11:41:30.266Z,23.23
2018-10-05T11:44:00.581Z,23.22
2018-10-05T11:46:31.137Z,23.22
2018-10-05T11:49:01.431Z,23.21
2018-10-05T11:51:32.371Z,23.21
2018-10-05T11:54:03.558Z,23.20
2018-10-05T11:56:35.081Z,23.20
2018-10-05T11:59:06.121Z,23.20
2018-10-05T12:01:37.672Z,23.19
2018-10-05T12:04:09.632Z,23.19
2018-10-05T12:06:40.985Z,23.19
2018-10-05T12:09:12.233Z,23.17
2018-10-05T12:11:42.966Z,23.18
2018-10-05T12:14:13.812Z,23.17
2018-10-05T12:16:44.330Z,23.17
2018-10-05T12:19:14.868Z,23.16
2018-10-05T12:21:45.190Z,23.16
2018-10-05T12:24:16.127Z,23.17
2018-10-05T12:26:47.156Z,23.15
2018-10-05T12:29:17.796Z,23.16
2018-10-05T12:31:48.337Z,23.15
2018-10-05T12:34:18.963Z,23.14
2018-10-05T12:36:49.392Z,23.14
2018-10-05T12:39:19.831Z,23.13
2018-10-05T12:41:50.270Z,23.13
2018-10-05T12:44:20.469Z,23.12
2018-10-05T12:46:50.888Z,23.12
2018-10-05T12:49:21.633Z,23.12
2018-10-05T12:51:52.267Z,23.11
2018-10-05T12:54:23.000Z,23.11
2018-10-05T12:56:53.330Z,23.11
2018-10-05T12:59:23.457Z,23.10
2018-10-05T13:01:54.184Z,23.10
2018-10-05T13:04:25.014Z,23.08
2018-10-05T13:06:55.759Z,23.08
2018-10-05T13:09:26.488Z,23.08
2018-10-05T13:11:56.708Z,23.08
2018-10-05T13:14:27.347Z,23.07
2018-10-05T13:16:57.983Z,23.07
2018-10-05T13:19:28.821Z,23.07
2018-10-05T13:21:59.731Z,23.07
2018-10-05T13:24:30.283Z,23.06
2018-10-05T13:27:00.609Z,23.06
2018-10-05T13:29:31.148Z,23.06
2018-10-05T13:32:01.926Z,23.07
2018-10-05T13:34:32.512Z,23.06
2018-10-05T13:37:03.450Z,23.06
2018-10-05T13:39:34.598Z,23.05
2018-10-05T13:42:05.827Z,23.05
2018-10-05T13:44:36.252Z,23.05
2018-10-05T13:47:07.308Z,23.04
2018-10-05T13:49:38.968Z,23.05
2018-10-05T13:52:10.420Z,23.05
2018-10-05T13:54:40.849Z,23.04
2018-10-05T13:57:11.480Z,23.04
2018-10-05T13:59:42.526Z,23.04
2018-10-05T14:02:13.465Z,23.05
2018-10-05T14:04:45.224Z,23.04
2018-10-05T14:07:15.957Z,23.04
2018-10-05T14:09:46.381Z,23.03
2018-10-05T14:12:17.735Z,23.04
2018-10-05T14:14:48.279Z,23.03
2018-10-05T14:17:18.996Z,23.04
2018-10-05T14:19:49.214Z,23.03
2018-10-05T14:22:19.554Z,23.03
2018-10-05T14:24:50.183Z,23.02
2018-10-05T14:27:21.427Z,23.02
2018-10-05T14:29:52.362Z,23.03
2018-10-05T14:32:22.904Z,23.02
2018-10-05T14:34:53.221Z,23.02
2018-10-05T14:37:23.546Z,23.01
2018-10-05T14:39:53.972Z,23.01
2018-10-05T14:42:24.301Z,23.02
2018-10-05T14:44:54.825Z,23.01
2018-10-05T14:47:25.610Z,23.01
2018-10-05T14:49:56.093Z,23.00
2018-10-05T14:52:27.551Z,23.00
2018-10-05T14:54:57.884Z,22.98
2018-10-05T14:57:28.428Z,23.00
2018-10-05T14:59:59.342Z,23.00
2018-10-05T15:02:30.288Z,22.98
2018-10-05T15:05:00.912Z,22.98
2018-10-05T15:07:31.655Z,22.98
2018-10-05T15:10:04.235Z,22.97
2018-10-05T15:12:35.833Z,22.97
2018-10-05T15:15:07.777Z,22.96
2018-10-05T15:17:39.098Z,22.96
2018-10-05T15:20:09.627Z,22.95
2018-10-05T15:22:40.256Z,22.95
2018-10-05T15:25:10.578Z,22.95
2018-10-05T15:27:40.706Z,22.95
2018-10-05T15:30:11.029Z,22.94
2018-10-05T15:32:41.712Z,22.93
2018-10-05T15:35:12.091Z,22.94
2018-10-05T15:37:42.613Z,22.94
2018-10-05T15:40:12.930Z,22.93
2018-10-05T15:42:43.978Z,22.93
2018-10-05T15:45:14.418Z,22.92
2018-10-05T15:47:44.843Z,22.91
2018-10-05T15:50:15.779Z,22.93
2018-10-05T15:52:46.213Z,22.92
2018-10-05T15:55:16.838Z,22.92
2018-10-05T15:57:47.264Z,22.91
2018-10-05T16:00:20.287Z,22.91
2018-10-05T16:02:50.887Z,22.91
2018-10-05T16:05:21.431Z,22.91
2018-10-05T16:07:53.689Z,22.91
2018-10-05T16:10:24.528Z,22.91
2018-10-05T16:12:55.078Z,22.91
2018-10-05T16:15:25.686Z,22.92
2018-10-05T16:17:57.345Z,22.91
2018-10-05T16:37:35.075Z,22.89
2018-10-05T16:40:10.427Z,22.89
2018-10-05T16:42:45.241Z,22.90
2018-10-05T16:45:18.136Z,22.90
2018-10-05T16:47:49.366Z,22.91
2018-10-05T16:50:23.899Z,22.91
2018-10-05T16:54:24.544Z,22.92
2018-10-05T16:56:57.419Z,22.92
2018-10-05T16:59:31.855Z,22.91
2018-10-05T17:02:07.249Z,22.91
2018-10-05T17:04:41.618Z,22.93
2018-10-05T17:07:14.916Z,22.92
2018-10-05T17:09:48.098Z,22.92
2018-10-05T17:12:24.370Z,22.93
2018-10-05T17:14:56.326Z,22.93
2018-10-05T17:17:29.112Z,22.93
2018-10-05T17:20:00.554Z,22.93
2018-10-05T17:22:33.859Z,22.92
2018-10-05T17:25:06.700Z,22.94
2018-10-05T17:27:37.273Z,22.94
2018-10-05T17:30:09.752Z,22.93
2018-10-05T17:32:43.761Z,22.94
2018-10-05T17:35:14.871Z,22.93
2018-10-05T17:37:47.540Z,22.93
2018-10-05T17:40:18.218Z,22.92
2018-10-05T17:42:49.666Z,22.93
2018-10-05T17:45:20.006Z,22.92
2018-10-05T17:47:50.838Z,22.93
2018-10-05T17:50:21.382Z,22.93
2018-10-05T17:52:52.723Z,22.93
2018-10-05T17:55:25.806Z,22.92
2018-10-05T17:57:57.157Z,22.93
2018-10-05T18:00:28.804Z,22.93
2018-10-05T18:03:01.098Z,22.92
2018-10-05T18:05:31.802Z,22.93
2018-10-05T18:08:03.792Z,22.93
2018-10-05T18:10:34.412Z,22.93
2018-10-05T18:13:05.352Z,22.93
2018-10-05T18:15:39.257Z,22.93
2018-10-05T18:18:09.785Z,22.93
2018-10-05T18:20:41.653Z,22.93
2018-10-05T18:23:12.487Z,22.93
2018-10-05T18:25:43.429Z,22.93
2018-10-05T18:28:13.652Z,22.92
2018-10-05T18:30:44.390Z,22.92
2018-10-05T18:33:15.013Z,22.93
2018-10-05T18:35:45.992Z,22.93
2018-10-05T18:38:16.981Z,22.93
2018-10-05T18:40:47.529Z,22.92
2018-10-05T18:43:18.053Z,22.93
2018-10-05T18:45:48.588Z,22.93
2018-10-05T18:48:19.326Z,22.93
2018-10-05T18:50:49.970Z,22.94
2018-10-05T18:53:20.800Z,22.94
2018-10-05T18:55:51.020Z,22.95
2018-10-05T18:58:21.134Z,22.95
2018-10-05T19:00:51.874Z,22.95
2018-10-05T19:03:22.913Z,22.96
2018-10-05T19:05:55.089Z,22.96
2018-10-05T19:08:25.717Z,22.97
2018-10-05T19:10:56.345Z,22.98
2018-10-05T19:13:26.916Z,22.98
2018-10-05T19:15:57.510Z,22.98
2018-10-05T19:18:28.457Z,23.00
2018-10-05T19:21:00.932Z,23.00
2018-10-05T19:23:32.179Z,23.00
2018-10-05T19:26:02.644Z,23.02
2018-10-05T19:28:34.618Z,23.01
2018-10-05T19:31:05.914Z,23.01
2018-10-05T19:33:36.752Z,23.02
2018-10-05T19:36:08.404Z,23.02
2018-10-05T19:38:40.377Z,23.03
2018-10-05T19:41:11.420Z,23.03
2018-10-05T19:43:42.454Z,23.02
2018-10-05T19:46:13.710Z,23.03
2018-10-05T19:48:45.265Z,23.04
2018-10-05T19:51:15.800Z,23.03
2018-10-05T19:53:46.849Z,23.04
2018-10-05T19:56:17.775Z,23.05
2018-10-05T19:58:50.354Z,23.04
2018-10-05T20:01:21.189Z,23.05
2018-10-05T20:03:51.718Z,23.05
2018-10-05T20:06:23.062Z,23.06
2018-10-05T20:08:53.388Z,23.06
2018-10-05T20:11:23.823Z,23.06
2018-10-05T20:13:54.246Z,23.07
2018-10-05T20:16:25.287Z,23.07
2018-10-05T20:18:55.309Z,23.06
2018-10-05T20:21:25.737Z,23.07
2018-10-05T20:23:56.692Z,23.08
2018-10-05T20:26:28.025Z,23.08
2018-10-05T20:28:58.967Z,23.07
2018-10-05T20:31:29.493Z,23.08
2018-10-05T20:34:00.847Z,23.08
2018-10-05T20:36:31.907Z,23.08
2018-10-05T20:39:02.419Z,23.08
2018-10-05T20:41:33.250Z,23.08
2018-10-05T20:44:03.581Z,23.08
2018-10-05T20:46:34.119Z,23.09
2018-10-05T20:49:05.255Z,23.10
2018-10-05T20:51:36.019Z,23.10
2018-10-05T20:54:08.064Z,23.09
2018-10-05T20:56:38.835Z,23.10
2018-10-05T20:59:09.423Z,23.10
2018-10-05T21:01:39.643Z,23.10
2018-10-05T21:04:10.235Z,23.10
2018-10-05T21:06:50.037Z,23.09
2018-10-05T21:09:20.761Z,23.10
2018-10-05T21:11:51.491Z,23.10
2018-10-05T21:14:21.983Z,23.10
2018-10-05T21:16:52.242Z,23.10
2018-10-05T21:19:23.188Z,23.10
2018-10-05T21:25:51.903Z,23.11
2018-10-05T21:28:22.329Z,23.10
2018-10-05T21:30:53.066Z,23.11
2018-10-05T21:33:23.642Z,23.10
2018-10-05T21:35:54.229Z,23.12
2018-10-05T21:38:25.166Z,23.12
2018-10-05T21:40:55.703Z,23.11
2018-10-05T21:43:26.642Z,23.13
2018-10-05T21:45:57.271Z,23.12
2018-10-05T21:48:28.216Z,23.14
2018-10-05T21:50:59.138Z,23.13
2018-10-05T21:53:29.806Z,23.16
2018-10-05T21:56:00.318Z,23.14
2018-10-05T21:58:30.531Z,23.15
2018-10-05T22:01:01.266Z,23.16
2018-10-05T22:03:32.313Z,23.17
2018-10-05T22:06:03.762Z,23.17
2018-10-05T22:08:33.884Z,23.17
2018-10-05T22:11:04.207Z,23.18
2018-10-05T22:13:34.324Z,23.19
2018-10-05T22:16:04.973Z,23.19
2018-10-05T22:18:35.194Z,23.20
2018-10-05T22:21:06.433Z,23.20
2018-10-05T22:23:37.269Z,23.21
2018-10-05T22:26:08.413Z,23.20
2018-10-05T22:28:38.640Z,23.21
2018-10-05T22:31:09.268Z,23.21
2018-10-05T22:33:39.490Z,23.21
2018-10-05T22:36:09.817Z,23.22
2018-10-05T22:38:40.143Z,23.22
2018-10-05T22:41:10.459Z,23.22
2018-10-05T22:43:41.202Z,23.23
2018-10-05T22:46:11.533Z,23.23
2018-10-05T22:48:41.962Z,23.24
2018-10-05T22:51:12.283Z,23.23
2018-10-05T22:53:42.409Z,23.23
2018-10-05T22:56:12.831Z,23.23
2018-10-05T22:58:43.061Z,23.24
2018-10-05T23:01:13.792Z,23.25
2018-10-05T23:03:44.733Z,23.25
2018-10-05T23:06:15.461Z,23.25
2018-10-05T23:08:45.991Z,23.25
2018-10-05T23:11:16.218Z,23.25
2018-10-05T23:13:46.545Z,23.25
2018-10-05T23:16:17.173Z,23.25
2018-10-05T23:18:47.405Z,23.25
2018-10-05T23:21:17.714Z,23.25
2018-10-05T23:23:47.840Z,23.25
2018-10-05T23:26:19.299Z,23.25
2018-10-05T23:28:49.766Z,23.26
2018-10-05T23:31:19.850Z,23.26
2018-10-05T23:33:49.959Z,23.26
2018-10-05T23:36:20.900Z,23.26
2018-10-05T23:38:51.542Z,23.27
2018-10-05T23:41:21.965Z,23.26
2018-10-05T23:43:52.600Z,23.26
2018-10-05T23:46:23.137Z,23.26
2018-10-05T23:48:54.169Z,23.26
2018-10-05T23:51:24.596Z,23.27
2018-10-05T23:53:54.617Z,23.27
2018-10-05T23:56:25.042Z,23.27
2018-10-05T23:58:55.881Z,23.27
